createdAt,value
2018-02-11T00:00:12.081Z,0
2018-02-11T00:00:52.649Z,0
2018-02-11T00:01:33.185Z,0
2018-02-11T00:02:13.729Z,0
2018-02-11T00:02:54.298Z,0
2018-02-11T00:03:35.732Z,0
2018-02-11T00:04:16.308Z,0
2018-02-11T00:04:56.864Z,0
2018-02-11T00:05:37.416Z,0
2018-02-11T00:06:17.966Z,0
2018-02-11T00:06:58.583Z,0
2018-02-11T00:07:39.084Z,0
2018-02-11T00:08:19.616Z,0
2018-02-11T00:09:00.125Z,0
2018-02-11T00:09:40.676Z,0
2018-02-11T00:10:21.246Z,0
2018-02-11T00:11:01.785Z,0
2018-02-11T00:11:42.307Z,0
2018-02-11T00:12:22.884Z,0
2018-02-11T00:13:03.404Z,0
2018-02-11T00:13:43.935Z,0
2018-02-11T00:14:24.476Z,0
2018-02-11T00:15:05.006Z,0
2018-02-11T00:15:45.565Z,0
2018-02-11T00:16:26.086Z,0
2018-02-11T00:17:06.633Z,0
2018-02-11T00:17:47.185Z,0
2018-02-11T00:18:27.769Z,0
2018-02-11T00:19:08.278Z,0
2018-02-11T00:19:48.903Z,0
2018-02-11T00:20:29.421Z,0
2018-02-11T00:21:09.936Z,0
2018-02-11T00:21:50.585Z,0
2018-02-11T00:22:31.091Z,0
2018-02-11T00:23:11.609Z,0
2018-02-11T00:23:52.154Z,0
2018-02-11T00:24:32.650Z,0
2018-02-11T00:25:13.223Z,0
2018-02-11T00:25:53.764Z,0
2018-02-11T00:26:34.249Z,0
2018-02-11T00:27:14.790Z,0
2018-02-11T00:27:55.332Z,0
2018-02-11T00:28:36.034Z,0
2018-02-11T00:29:16.405Z,0
2018-02-11T00:29:56.911Z,0
2018-02-11T00:30:37.479Z,0
2018-02-11T00:31:18.053Z,0
2018-02-11T00:31:58.758Z,0
2018-02-11T00:32:39.289Z,0
2018-02-11T00:33:19.771Z,0
2018-02-11T00:34:00.306Z,0
2018-02-11T00:34:40.880Z,0
2018-02-11T00:35:21.430Z,0
2018-02-11T00:36:02.132Z,0
2018-02-11T00:36:42.739Z,0
2018-02-11T00:37:23.235Z,0
2018-02-11T00:38:03.802Z,0
2018-02-11T00:38:44.326Z,0
2018-02-11T00:39:24.918Z,0
2018-02-11T00:40:05.523Z,0
2018-02-11T00:40:46.057Z,0
2018-02-11T00:41:26.542Z,0
2018-02-11T00:42:07.130Z,0
2018-02-11T00:42:47.653Z,0
2018-02-11T00:43:28.196Z,0
2018-02-11T00:44:08.709Z,0
2018-02-11T00:44:49.285Z,0
2018-02-11T00:45:29.788Z,0
2018-02-11T00:46:10.290Z,0
2018-02-11T00:46:50.891Z,0
2018-02-11T00:47:31.426Z,0
2018-02-11T00:48:12.003Z,0
2018-02-11T00:48:52.543Z,0
2018-02-11T00:49:33.081Z,0
2018-02-11T00:50:13.681Z,0
2018-02-11T00:50:54.212Z,0
2018-02-11T00:51:34.873Z,0
2018-02-11T00:52:15.412Z,0
2018-02-11T00:52:56.051Z,0
2018-02-11T00:53:36.632Z,0
2018-02-11T00:54:17.120Z,0
2018-02-11T00:54:57.647Z,0
2018-02-11T00:55:38.244Z,0
2018-02-11T00:56:18.773Z,0
2018-02-11T00:56:59.273Z,0
2018-02-11T00:57:40.020Z,0
2018-02-11T00:58:20.530Z,0
2018-02-11T00:59:01.038Z,0
2018-02-11T00:59:41.610Z,0
2018-02-11T01:00:22.203Z,0
2018-02-11T01:01:02.705Z,0
2018-02-11T01:01:43.298Z,0
2018-02-11T01:02:23.802Z,0
2018-02-11T01:03:04.318Z,0
2018-02-11T01:03:44.816Z,0
2018-02-11T01:04:25.484Z,0
2018-02-11T01:05:06.068Z,0
2018-02-11T01:05:46.551Z,0
2018-02-11T01:06:27.075Z,0
2018-02-11T01:07:07.655Z,0
2018-02-11T01:07:48.186Z,0
2018-02-11T01:08:28.650Z,0
2018-02-11T01:09:09.344Z,0
2018-02-11T01:09:49.837Z,0
2018-02-11T01:10:30.345Z,0
2018-02-11T01:11:10.974Z,0
2018-02-11T01:11:51.514Z,0
2018-02-11T01:12:31.990Z,0
2018-02-11T01:13:12.554Z,0
2018-02-11T01:13:53.240Z,0
2018-02-11T01:14:33.689Z,0
2018-02-11T01:15:14.238Z,0
2018-02-11T01:15:54.749Z,0
2018-02-11T01:16:35.424Z,0
2018-02-11T01:17:15.904Z,0
2018-02-11T01:17:56.555Z,0
2018-02-11T01:18:37.026Z,0
2018-02-11T01:19:17.648Z,0
2018-02-11T01:19:58.806Z,0
2018-02-11T01:20:38.976Z,0
2018-02-11T01:21:19.492Z,0
2018-02-11T01:22:00.002Z,0
2018-02-11T01:22:40.581Z,0
2018-02-11T01:23:21.093Z,0
2018-02-11T01:24:01.659Z,0
2018-02-11T01:24:42.419Z,0
2018-02-11T01:25:22.834Z,0
2018-02-11T01:26:03.371Z,0
2018-02-11T01:26:43.984Z,0
2018-02-11T01:27:24.499Z,0
2018-02-11T01:28:04.954Z,0
2018-02-11T01:28:45.486Z,0
2018-02-11T01:29:26.044Z,0
2018-02-11T01:30:06.555Z,0
2018-02-11T01:30:47.127Z,0
2018-02-11T01:31:27.634Z,0
2018-02-11T01:32:08.168Z,0
2018-02-11T01:32:48.736Z,0
2018-02-11T01:33:29.329Z,0
2018-02-11T01:34:09.885Z,0
2018-02-11T01:34:50.470Z,0
2018-02-11T01:35:30.997Z,0
2018-02-11T01:36:11.413Z,0
2018-02-11T01:36:51.967Z,0
2018-02-11T01:37:32.664Z,0
2018-02-11T01:38:13.134Z,0
2018-02-11T01:38:53.614Z,0
2018-02-11T01:39:34.180Z,0
2018-02-11T01:40:14.834Z,0
2018-02-11T01:40:55.321Z,0
2018-02-11T01:41:35.915Z,0
2018-02-11T01:42:16.452Z,0
2018-02-11T01:42:56.984Z,0
2018-02-11T01:43:37.557Z,0
2018-02-11T01:44:18.093Z,0
2018-02-11T01:44:58.608Z,0
2018-02-11T01:45:39.162Z,0
2018-02-11T01:46:19.639Z,0
2018-02-11T01:47:00.220Z,0
2018-02-11T01:47:40.709Z,0
2018-02-11T01:48:21.269Z,0
2018-02-11T01:49:01.800Z,0
2018-02-11T01:49:42.370Z,0
2018-02-11T01:50:22.945Z,0
2018-02-11T01:51:03.494Z,0
2018-02-11T01:51:44.060Z,0
2018-02-11T01:52:24.599Z,0
2018-02-11T01:53:05.143Z,0
2018-02-11T01:53:45.632Z,0
2018-02-11T01:54:26.183Z,0
2018-02-11T01:55:06.715Z,0
2018-02-11T01:55:47.267Z,0
2018-02-11T01:56:27.803Z,0
2018-02-11T01:57:08.352Z,0
2018-02-11T01:57:48.931Z,0
2018-02-11T01:58:29.418Z,0
2018-02-11T01:59:10.182Z,0
2018-02-11T01:59:50.721Z,0
2018-02-11T02:00:31.268Z,0
2018-02-11T02:01:11.814Z,0
2018-02-11T02:01:52.384Z,0
2018-02-11T02:02:32.896Z,0
2018-02-11T02:03:13.414Z,0
2018-02-11T02:03:53.950Z,0
2018-02-11T02:04:34.497Z,0
2018-02-11T02:05:15.015Z,0
2018-02-11T02:05:55.567Z,0
2018-02-11T02:06:36.115Z,0
2018-02-11T02:07:16.664Z,0
2018-02-11T02:07:57.192Z,0
2018-02-11T02:08:37.758Z,0
2018-02-11T02:09:18.229Z,0
2018-02-11T02:09:58.765Z,0
2018-02-11T02:10:39.296Z,0
2018-02-11T02:11:19.862Z,0
2018-02-11T02:12:00.395Z,0
2018-02-11T02:12:40.899Z,0
2018-02-11T02:13:21.432Z,0
2018-02-11T02:14:01.950Z,0
2018-02-11T02:14:42.495Z,0
2018-02-11T02:15:23.028Z,0
2018-02-11T02:16:03.547Z,0
2018-02-11T02:16:44.109Z,0
2018-02-11T02:17:24.647Z,0
2018-02-11T02:18:05.178Z,0
2018-02-11T02:18:45.727Z,0
2018-02-11T02:19:26.302Z,0
2018-02-11T02:20:06.845Z,0
2018-02-11T02:20:47.402Z,0
2018-02-11T02:21:27.962Z,0
2018-02-11T02:22:08.472Z,0
2018-02-11T02:22:49.036Z,0
2018-02-11T02:23:29.557Z,0
2018-02-11T02:24:10.062Z,0
2018-02-11T02:24:50.592Z,0
2018-02-11T02:25:31.103Z,0
2018-02-11T02:26:11.665Z,0
2018-02-11T02:26:52.192Z,0
2018-02-11T02:27:32.744Z,0
2018-02-11T02:28:13.280Z,0
2018-02-11T02:28:53.820Z,0
2018-02-11T02:29:34.369Z,0
2018-02-11T02:30:14.914Z,0
2018-02-11T02:30:55.463Z,0
2018-02-11T02:31:36.007Z,0
2018-02-11T02:32:16.519Z,0
2018-02-11T02:32:57.067Z,0
2018-02-11T02:33:37.630Z,0
2018-02-11T02:34:18.156Z,0
2018-02-11T02:34:58.688Z,0
2018-02-11T02:35:39.206Z,0
2018-02-11T02:36:19.748Z,0
2018-02-11T02:37:00.312Z,0
2018-02-11T02:37:40.828Z,0
2018-02-11T02:38:21.386Z,0
2018-02-11T02:39:01.955Z,0
2018-02-11T02:39:42.482Z,0
2018-02-11T02:40:23.017Z,0
2018-02-11T02:41:03.597Z,0
2018-02-11T02:41:44.119Z,0
2018-02-11T02:42:24.610Z,0
2018-02-11T02:43:05.176Z,0
2018-02-11T02:43:45.657Z,0
2018-02-11T02:44:26.219Z,0
2018-02-11T02:45:06.771Z,0
2018-02-11T02:45:47.301Z,0
2018-02-11T02:46:27.845Z,0
2018-02-11T02:47:08.358Z,0
2018-02-11T02:47:48.885Z,0
2018-02-11T02:48:29.437Z,0
2018-02-11T02:49:09.988Z,0
2018-02-11T02:49:50.538Z,0
2018-02-11T02:50:31.067Z,0
2018-02-11T02:51:11.643Z,0
2018-02-11T02:51:52.149Z,0
2018-02-11T02:52:32.631Z,0
2018-02-11T02:53:13.179Z,0
2018-02-11T02:53:53.682Z,0
2018-02-11T02:54:34.235Z,0
2018-02-11T02:55:14.750Z,0
2018-02-11T02:55:55.296Z,0
2018-02-11T02:56:35.853Z,0
2018-02-11T02:57:16.357Z,0
2018-02-11T02:57:56.910Z,0
2018-02-11T02:58:37.408Z,0
2018-02-11T02:59:17.952Z,0
2018-02-11T02:59:58.538Z,0
2018-02-11T03:00:39.045Z,0
2018-02-11T03:01:19.592Z,0
2018-02-11T03:02:00.122Z,0
2018-02-11T03:02:40.659Z,0
2018-02-11T03:03:21.174Z,0
2018-02-11T03:04:01.689Z,0
2018-02-11T03:04:42.232Z,0
2018-02-11T03:05:22.805Z,0
2018-02-11T03:06:03.316Z,0
2018-02-11T03:06:43.831Z,0
2018-02-11T03:07:24.518Z,0
2018-02-11T03:08:05.060Z,0
2018-02-11T03:08:45.621Z,0
2018-02-11T03:09:26.160Z,0
2018-02-11T03:10:06.719Z,0
2018-02-11T03:10:47.226Z,0
2018-02-11T03:11:27.831Z,0
2018-02-11T03:12:08.394Z,0
2018-02-11T03:12:48.919Z,0
2018-02-11T03:13:29.518Z,0
2018-02-11T03:14:10.030Z,0
2018-02-11T03:14:50.518Z,0
2018-02-11T03:15:31.070Z,0
2018-02-11T03:16:11.580Z,0
2018-02-11T03:16:52.074Z,0
2018-02-11T03:17:32.640Z,0
2018-02-11T03:18:13.169Z,0
2018-02-11T03:18:53.717Z,0
2018-02-11T03:19:34.260Z,0
2018-02-11T03:20:14.793Z,0
2018-02-11T03:20:55.312Z,0
2018-02-11T03:21:35.866Z,0
2018-02-11T03:22:16.425Z,0
2018-02-11T03:22:56.979Z,0
2018-02-11T03:23:37.546Z,0
2018-02-11T03:24:18.109Z,0
2018-02-11T03:24:58.656Z,0
2018-02-11T03:25:39.154Z,0
2018-02-11T03:26:19.681Z,0
2018-02-11T03:27:00.264Z,0
2018-02-11T03:27:40.778Z,0
2018-02-11T03:28:21.291Z,0
2018-02-11T03:29:01.927Z,0
2018-02-11T03:29:42.390Z,0
2018-02-11T03:30:22.926Z,0
2018-02-11T03:31:03.438Z,0
2018-02-11T03:31:43.984Z,0
2018-02-11T03:32:24.555Z,0
2018-02-11T03:33:05.078Z,0
2018-02-11T03:33:45.646Z,0
2018-02-11T03:34:26.112Z,0
2018-02-11T03:35:06.673Z,0
2018-02-11T03:35:47.201Z,0
2018-02-11T03:36:27.745Z,0
2018-02-11T03:37:08.304Z,0
2018-02-11T03:37:48.801Z,0
2018-02-11T03:38:29.322Z,0
2018-02-11T03:39:09.894Z,0
2018-02-11T03:39:50.405Z,0
2018-02-11T03:40:30.928Z,0
2018-02-11T03:41:11.453Z,0
2018-02-11T03:41:51.953Z,0
2018-02-11T03:42:32.470Z,0
2018-02-11T03:43:12.989Z,0
2018-02-11T03:43:53.556Z,0
2018-02-11T03:44:34.043Z,0
2018-02-11T03:45:14.601Z,0
2018-02-11T03:45:55.137Z,0
2018-02-11T03:46:35.658Z,0
2018-02-11T03:47:16.216Z,0
2018-02-11T03:47:56.783Z,0
2018-02-11T03:48:37.356Z,0
2018-02-11T03:49:17.850Z,0
2018-02-11T03:49:58.379Z,0
2018-02-11T03:50:38.963Z,0
2018-02-11T03:51:19.530Z,0
2018-02-11T03:52:00.046Z,0
2018-02-11T03:52:40.585Z,0
2018-02-11T03:53:21.137Z,0
2018-02-11T03:54:01.689Z,0
2018-02-11T03:54:42.241Z,0
2018-02-11T03:55:22.756Z,0
2018-02-11T03:56:03.282Z,0
2018-02-11T03:56:43.819Z,0
2018-02-11T03:57:24.413Z,0
2018-02-11T03:58:04.953Z,0
2018-02-11T03:58:45.468Z,0
2018-02-11T03:59:26.030Z,0
2018-02-11T04:00:06.578Z,0
2018-02-11T04:00:47.108Z,0
2018-02-11T04:01:27.633Z,0
2018-02-11T04:02:08.145Z,0
2018-02-11T04:02:48.714Z,0
2018-02-11T04:03:29.247Z,0
2018-02-11T04:04:09.777Z,0
2018-02-11T04:04:50.299Z,0
2018-02-11T04:05:30.793Z,0
2018-02-11T04:06:11.327Z,0
2018-02-11T04:06:51.878Z,0
2018-02-11T04:07:32.403Z,0
2018-02-11T04:08:12.973Z,0
2018-02-11T04:08:53.533Z,0
2018-02-11T04:09:34.068Z,0
2018-02-11T04:10:14.614Z,0
2018-02-11T04:10:55.165Z,0
2018-02-11T04:11:35.665Z,0
2018-02-11T04:12:16.236Z,0
2018-02-11T04:12:56.759Z,0
2018-02-11T04:13:37.335Z,0
2018-02-11T04:14:17.833Z,0
2018-02-11T04:14:58.377Z,0
2018-02-11T04:15:38.942Z,0
2018-02-11T04:16:19.524Z,0
2018-02-11T04:16:59.993Z,0
2018-02-11T04:17:40.524Z,0
2018-02-11T04:18:21.084Z,0
2018-02-11T04:19:01.667Z,0
2018-02-11T04:19:42.191Z,0
2018-02-11T04:20:22.747Z,0
2018-02-11T04:21:03.320Z,0
2018-02-11T04:21:43.843Z,0
2018-02-11T04:22:24.378Z,0
2018-02-11T04:23:04.930Z,0
2018-02-11T04:23:45.462Z,0
2018-02-11T04:24:25.998Z,0
2018-02-11T04:25:06.526Z,0
2018-02-11T04:25:47.092Z,0
2018-02-11T04:26:27.634Z,0
2018-02-11T04:27:08.220Z,0
2018-02-11T04:27:48.755Z,0
2018-02-11T04:28:29.281Z,0
2018-02-11T04:29:09.843Z,0
2018-02-11T04:29:50.340Z,0
2018-02-11T04:30:30.892Z,0
2018-02-11T04:31:11.436Z,0
2018-02-11T04:31:51.994Z,0
2018-02-11T04:32:32.536Z,0
2018-02-11T04:33:13.056Z,0
2018-02-11T04:33:53.579Z,0
2018-02-11T04:34:34.155Z,0
2018-02-11T04:35:14.700Z,0
2018-02-11T04:35:55.221Z,0
2018-02-11T04:36:35.744Z,0
2018-02-11T04:37:16.310Z,0
2018-02-11T04:37:56.834Z,0
2018-02-11T04:38:37.339Z,0
2018-02-11T04:39:17.883Z,0
2018-02-11T04:39:58.421Z,0
2018-02-11T04:40:38.984Z,0
2018-02-11T04:41:19.485Z,0
2018-02-11T04:42:00.030Z,0
2018-02-11T04:42:40.577Z,0
2018-02-11T04:43:21.118Z,0
2018-02-11T04:44:01.674Z,0
2018-02-11T04:44:42.195Z,0
2018-02-11T04:45:22.725Z,0
2018-02-11T04:46:03.265Z,0
2018-02-11T04:46:43.812Z,0
2018-02-11T04:47:24.389Z,0
2018-02-11T04:48:04.962Z,0
2018-02-11T04:48:45.452Z,0
2018-02-11T04:49:26.027Z,0
2018-02-11T04:50:06.601Z,0
2018-02-11T04:50:47.139Z,0
2018-02-11T04:51:27.679Z,0
2018-02-11T04:52:08.224Z,0
2018-02-11T04:52:48.785Z,0
2018-02-11T04:53:29.317Z,0
2018-02-11T04:54:09.877Z,0
2018-02-11T04:54:50.479Z,0
2018-02-11T04:55:30.982Z,0
2018-02-11T04:56:11.482Z,0
2018-02-11T04:56:52.044Z,0
2018-02-11T04:57:32.566Z,0
2018-02-11T04:58:13.135Z,0
2018-02-11T04:58:53.679Z,0
2018-02-11T04:59:34.234Z,0
2018-02-11T05:00:14.785Z,0
2018-02-11T05:00:55.274Z,0
2018-02-11T05:01:35.842Z,0
2018-02-11T05:02:16.394Z,0
2018-02-11T05:02:56.920Z,0
2018-02-11T05:03:37.506Z,0
2018-02-11T05:04:18.044Z,0
2018-02-11T05:04:58.614Z,0
2018-02-11T05:05:39.174Z,0
2018-02-11T05:06:19.650Z,0
2018-02-11T05:07:00.214Z,0
2018-02-11T05:07:40.756Z,0
2018-02-11T05:08:21.293Z,0
2018-02-11T05:09:01.859Z,0
2018-02-11T05:09:42.396Z,0
2018-02-11T05:10:22.942Z,0
2018-02-11T05:11:03.464Z,0
2018-02-11T05:11:44.002Z,0
2018-02-11T05:12:24.553Z,0
2018-02-11T05:13:05.097Z,0
2018-02-11T05:13:45.646Z,0
2018-02-11T05:14:26.205Z,0
2018-02-11T05:15:06.815Z,0
2018-02-11T05:15:47.297Z,0
2018-02-11T05:16:27.826Z,0
2018-02-11T05:17:08.352Z,0
2018-02-11T05:17:48.909Z,0
2018-02-11T05:18:29.446Z,0
2018-02-11T05:19:09.988Z,0
2018-02-11T05:19:50.556Z,0
2018-02-11T05:20:31.095Z,0
2018-02-11T05:21:11.618Z,0
2018-02-11T05:21:52.146Z,0
2018-02-11T05:22:32.727Z,0
2018-02-11T05:23:13.237Z,0
2018-02-11T05:23:53.803Z,0
2018-02-11T05:24:34.338Z,0
2018-02-11T05:25:14.879Z,0
2018-02-11T05:25:55.379Z,0
2018-02-11T05:26:35.976Z,0
2018-02-11T05:27:16.471Z,0
2018-02-11T05:27:56.990Z,0
2018-02-11T05:28:37.527Z,0
2018-02-11T05:29:18.068Z,0
2018-02-11T05:29:58.632Z,0
2018-02-11T05:30:39.183Z,0
2018-02-11T05:31:19.761Z,0
2018-02-11T05:32:00.281Z,0
2018-02-11T05:32:40.789Z,0
2018-02-11T05:33:21.297Z,0
2018-02-11T05:34:01.873Z,0
2018-02-11T05:34:42.486Z,0
2018-02-11T05:35:23.009Z,0
2018-02-11T05:36:03.492Z,0
2018-02-11T05:36:44.082Z,0
2018-02-11T05:37:24.612Z,0
2018-02-11T05:38:05.150Z,0
2018-02-11T05:38:45.684Z,0
2018-02-11T05:39:26.226Z,0
2018-02-11T05:40:06.761Z,0
2018-02-11T05:40:47.347Z,0
2018-02-11T05:41:27.832Z,0
2018-02-11T05:42:08.386Z,0
2018-02-11T05:42:48.889Z,0
2018-02-11T05:43:29.447Z,0
2018-02-11T05:44:09.969Z,0
2018-02-11T05:44:50.526Z,0
2018-02-11T05:45:31.076Z,0
2018-02-11T05:46:11.569Z,0
2018-02-11T05:46:52.086Z,0
2018-02-11T05:47:32.592Z,0
2018-02-11T05:48:13.129Z,0
2018-02-11T05:48:53.664Z,0
2018-02-11T05:49:34.213Z,0
2018-02-11T05:50:14.740Z,0
2018-02-11T05:50:55.252Z,0
2018-02-11T05:51:35.827Z,0
2018-02-11T05:52:16.379Z,0
2018-02-11T05:52:56.862Z,0
2018-02-11T05:53:37.431Z,0
2018-02-11T05:54:17.987Z,0
2018-02-11T05:54:58.498Z,0
2018-02-11T05:55:39.062Z,0
2018-02-11T05:56:19.598Z,0
2018-02-11T05:57:00.111Z,0
2018-02-11T05:57:40.679Z,0
2018-02-11T05:58:21.181Z,0
2018-02-11T05:59:01.764Z,0
2018-02-11T05:59:42.296Z,0
2018-02-11T06:00:22.862Z,0
2018-02-11T06:01:03.358Z,0
2018-02-11T06:01:43.875Z,0
2018-02-11T06:02:24.406Z,0
2018-02-11T06:03:04.942Z,0
2018-02-11T06:03:45.468Z,0
2018-02-11T06:04:26.010Z,0
2018-02-11T06:05:06.559Z,0
2018-02-11T06:05:47.132Z,0
2018-02-11T06:06:27.623Z,0
2018-02-11T06:07:08.155Z,0
2018-02-11T06:07:48.735Z,0
2018-02-11T06:08:29.257Z,0
2018-02-11T06:09:09.856Z,0
2018-02-11T06:09:50.356Z,0
2018-02-11T06:10:30.835Z,0
2018-02-11T06:11:11.371Z,0
2018-02-11T06:11:51.954Z,0
2018-02-11T06:12:32.467Z,0
2018-02-11T06:13:13.008Z,0
2018-02-11T06:13:53.579Z,0
2018-02-11T06:14:34.116Z,0
2018-02-11T06:15:14.662Z,0
2018-02-11T06:15:55.171Z,0
2018-02-11T06:16:35.691Z,0
2018-02-11T06:17:16.240Z,0
2018-02-11T06:17:56.745Z,4
2018-02-11T06:18:37.292Z,4
2018-02-11T06:19:17.865Z,0
2018-02-11T06:19:58.365Z,0
2018-02-11T06:20:38.952Z,0
2018-02-11T06:21:19.433Z,4
2018-02-11T06:21:59.995Z,4
2018-02-11T06:22:40.527Z,0
2018-02-11T06:23:21.051Z,4
2018-02-11T06:24:01.570Z,4
2018-02-11T06:24:42.136Z,4
2018-02-11T06:25:22.648Z,4
2018-02-11T06:26:03.191Z,8
2018-02-11T06:26:43.744Z,4
2018-02-11T06:27:24.321Z,8
2018-02-11T06:28:04.889Z,8
2018-02-11T06:28:45.386Z,8
2018-02-11T06:29:25.933Z,8
2018-02-11T06:30:06.515Z,8
2018-02-11T06:30:47.039Z,12
2018-02-11T06:31:27.559Z,8
2018-02-11T06:32:08.114Z,12
2018-02-11T06:32:48.624Z,12
2018-02-11T06:33:29.155Z,12
2018-02-11T06:34:09.692Z,16
2018-02-11T06:34:50.289Z,16
2018-02-11T06:35:30.798Z,20
2018-02-11T06:36:11.312Z,20
2018-02-11T06:36:51.869Z,20
2018-02-11T06:37:32.430Z,24
2018-02-11T06:38:13.000Z,24
2018-02-11T06:38:53.506Z,28
2018-02-11T06:39:34.037Z,32
2018-02-11T06:40:14.589Z,36
2018-02-11T06:40:55.142Z,40
2018-02-11T06:41:35.670Z,44
2018-02-11T06:42:16.213Z,44
2018-02-11T06:42:56.742Z,52
2018-02-11T06:43:37.519Z,56
2018-02-11T06:44:18.049Z,64
2018-02-11T06:44:58.630Z,68
2018-02-11T06:45:39.176Z,76
2018-02-11T06:46:19.749Z,76
2018-02-11T06:47:00.284Z,80
2018-02-11T06:47:40.804Z,84
2018-02-11T06:48:21.333Z,92
2018-02-11T06:49:01.890Z,100
2018-02-11T06:49:42.417Z,100
2018-02-11T06:50:22.903Z,104
2018-02-11T06:51:03.476Z,108
2018-02-11T06:51:44.008Z,112
2018-02-11T06:52:24.482Z,124
2018-02-11T06:53:05.021Z,132
2018-02-11T06:53:45.561Z,136
2018-02-11T06:54:26.087Z,140
2018-02-11T06:55:06.639Z,148
2018-02-11T06:55:47.156Z,160
2018-02-11T06:56:27.728Z,172
2018-02-11T06:57:08.251Z,188
2018-02-11T06:57:48.825Z,200
2018-02-11T06:58:29.381Z,212
2018-02-11T06:59:09.935Z,220
2018-02-11T06:59:50.421Z,236
2018-02-11T07:00:30.955Z,248
2018-02-11T07:01:11.513Z,264
2018-02-11T07:01:52.058Z,276
2018-02-11T07:02:32.639Z,284
2018-02-11T07:03:13.149Z,296
2018-02-11T07:03:53.742Z,316
2018-02-11T07:04:34.254Z,340
2018-02-11T07:05:14.786Z,372
2018-02-11T07:05:55.326Z,404
2018-02-11T07:06:35.861Z,444
2018-02-11T07:07:16.365Z,476
2018-02-11T07:07:56.910Z,496
2018-02-11T07:08:37.449Z,520
2018-02-11T07:09:18.001Z,548
2018-02-11T07:09:58.544Z,580
2018-02-11T07:10:39.091Z,604
2018-02-11T07:11:19.617Z,616
2018-02-11T07:12:00.144Z,620
2018-02-11T07:12:40.674Z,608
2018-02-11T07:13:21.411Z,588
2018-02-11T07:14:01.756Z,568
2018-02-11T07:14:42.314Z,548
2018-02-11T07:15:22.818Z,520
2018-02-11T07:16:03.363Z,496
2018-02-11T07:16:43.873Z,484
2018-02-11T07:17:24.418Z,480
2018-02-11T07:18:04.961Z,480
2018-02-11T07:18:45.513Z,496
2018-02-11T07:19:26.183Z,516
2018-02-11T07:20:06.725Z,532
2018-02-11T07:20:47.279Z,552
2018-02-11T07:21:27.773Z,584
2018-02-11T07:22:08.327Z,620
2018-02-11T07:22:48.911Z,652
2018-02-11T07:23:29.426Z,676
2018-02-11T07:24:09.986Z,696
2018-02-11T07:24:50.525Z,724
2018-02-11T07:25:31.038Z,748
2018-02-11T07:26:11.581Z,764
2018-02-11T07:26:52.122Z,748
2018-02-11T07:27:32.628Z,736
2018-02-11T07:28:13.205Z,716
2018-02-11T07:28:53.746Z,724
2018-02-11T07:29:34.397Z,740
2018-02-11T07:30:14.798Z,752
2018-02-11T07:30:55.356Z,748
2018-02-11T07:31:35.911Z,752
2018-02-11T07:32:16.485Z,756
2018-02-11T07:32:57.068Z,768
2018-02-11T07:33:37.556Z,764
2018-02-11T07:34:18.098Z,784
2018-02-11T07:34:58.677Z,824
2018-02-11T07:35:39.243Z,860
2018-02-11T07:36:19.782Z,872
2018-02-11T07:37:00.330Z,876
2018-02-11T07:37:40.882Z,880
2018-02-11T07:38:21.422Z,880
2018-02-11T07:39:01.951Z,888
2018-02-11T07:39:42.484Z,912
2018-02-11T07:40:23.023Z,904
2018-02-11T07:41:03.580Z,880
2018-02-11T07:41:44.118Z,868
2018-02-11T07:42:24.642Z,860
2018-02-11T07:43:05.147Z,852
2018-02-11T07:43:45.676Z,824
2018-02-11T07:44:26.220Z,812
2018-02-11T07:45:06.776Z,804
2018-02-11T07:45:47.304Z,788
2018-02-11T07:46:27.883Z,784
2018-02-11T07:47:08.457Z,808
2018-02-11T07:47:49.019Z,832
2018-02-11T07:48:29.501Z,840
2018-02-11T07:49:10.098Z,840
2018-02-11T07:49:50.629Z,868
2018-02-11T07:50:31.124Z,904
2018-02-11T07:51:11.675Z,920
2018-02-11T07:51:52.258Z,924
2018-02-11T07:52:32.779Z,924
2018-02-11T07:53:13.327Z,924
2018-02-11T07:53:53.943Z,952
2018-02-11T07:55:22.078Z,1068
2018-02-11T07:56:02.680Z,1092
2018-02-11T07:56:43.175Z,1116
2018-02-11T07:57:23.666Z,1164
2018-02-11T07:58:04.213Z,1184
2018-02-11T07:58:44.820Z,1188
2018-02-11T07:59:25.324Z,1188
2018-02-11T08:00:05.921Z,1152
2018-02-11T08:00:46.454Z,1096
2018-02-11T08:01:26.958Z,1072
2018-02-11T08:02:07.567Z,1052
2018-02-11T08:02:48.090Z,1048
2018-02-11T08:03:28.676Z,1060
2018-02-11T08:04:09.245Z,1080
2018-02-11T08:04:49.871Z,1080
2018-02-11T08:05:30.403Z,1048
2018-02-11T08:06:10.934Z,1060
2018-02-11T08:06:51.534Z,1080
2018-02-11T08:07:32.052Z,1140
2018-02-11T08:08:12.731Z,1152
2018-02-11T08:08:53.275Z,1188
2018-02-11T08:09:33.778Z,1208
2018-02-11T08:10:14.361Z,1144
2018-02-11T08:10:54.926Z,1140
2018-02-11T08:11:35.454Z,1152
2018-02-11T08:12:16.034Z,1184
2018-02-11T08:12:56.553Z,1284
2018-02-11T08:13:37.092Z,1344
2018-02-11T08:14:17.632Z,1412
2018-02-11T08:14:58.164Z,1448
2018-02-11T08:15:38.698Z,1480
2018-02-11T08:16:19.252Z,1488
2018-02-11T08:16:59.784Z,1488
2018-02-11T08:17:40.388Z,1484
2018-02-11T08:18:21.389Z,1452
2018-02-11T08:19:01.495Z,1468
2018-02-11T08:19:42.001Z,1464
2018-02-11T08:20:22.560Z,1348
2018-02-11T08:21:03.150Z,1292
2018-02-11T08:21:43.697Z,1228
2018-02-11T08:22:24.204Z,1272
2018-02-11T08:23:04.754Z,1332
2018-02-11T08:23:45.269Z,1336
2018-02-11T08:24:25.797Z,1332
2018-02-11T08:25:06.379Z,1292
2018-02-11T08:25:46.955Z,1280
2018-02-11T08:26:27.523Z,1236
2018-02-11T08:27:08.043Z,1196
2018-02-11T08:27:48.565Z,1172
2018-02-11T08:28:29.111Z,1152
2018-02-11T08:29:09.650Z,1128
2018-02-11T08:29:50.158Z,1116
2018-02-11T08:30:30.762Z,1120
2018-02-11T08:31:11.258Z,1152
2018-02-11T08:31:51.801Z,1176
2018-02-11T08:32:32.359Z,1156
2018-02-11T08:33:12.901Z,1164
2018-02-11T08:33:53.442Z,1212
2018-02-11T08:34:33.951Z,1240
2018-02-11T08:35:14.503Z,1276
2018-02-11T08:35:55.027Z,1248
2018-02-11T08:36:35.577Z,1292
2018-02-11T08:37:16.185Z,1348
2018-02-11T08:37:56.683Z,1352
2018-02-11T08:38:37.341Z,1352
2018-02-11T08:39:17.784Z,1324
2018-02-11T08:39:58.329Z,1280
2018-02-11T08:40:38.843Z,1268
2018-02-11T08:41:19.388Z,1280
2018-02-11T08:41:59.935Z,1260
2018-02-11T08:42:41.340Z,1268
2018-02-11T08:43:21.893Z,1324
2018-02-11T08:44:02.433Z,1368
2018-02-11T08:44:42.929Z,1416
2018-02-11T08:45:23.492Z,1492
2018-02-11T08:46:04.043Z,1540
2018-02-11T08:46:44.656Z,1524
2018-02-11T08:47:25.129Z,1516
2018-02-11T08:48:05.709Z,1532
2018-02-11T08:48:46.268Z,1436
2018-02-11T08:49:26.809Z,1448
2018-02-11T08:50:07.307Z,1592
2018-02-11T08:50:47.846Z,1780
2018-02-11T08:51:28.374Z,1872
2018-02-11T08:52:08.950Z,1872
2018-02-11T08:52:49.495Z,1848
2018-02-11T08:53:30.022Z,1944
2018-02-11T08:54:10.542Z,2116
2018-02-11T08:54:51.135Z,2276
2018-02-11T08:55:31.653Z,2376
2018-02-11T08:56:12.139Z,2476
2018-02-11T08:56:52.695Z,2528
2018-02-11T08:57:33.214Z,2568
2018-02-11T08:58:13.771Z,2580
2018-02-11T08:58:54.330Z,2644
2018-02-11T08:59:34.812Z,2704
2018-02-11T09:00:15.361Z,2760
2018-02-11T09:00:55.997Z,2780
2018-02-11T09:01:36.466Z,2788
2018-02-11T09:02:17.006Z,2784
2018-02-11T09:02:57.635Z,2792
2018-02-11T09:03:38.142Z,2808
2018-02-11T09:04:18.743Z,2836
2018-02-11T09:04:59.260Z,2892
2018-02-11T09:05:39.799Z,2940
2018-02-11T09:06:20.451Z,2996
2018-02-11T09:07:01.025Z,3044
2018-02-11T09:09:40.117Z,2976
2018-02-11T09:10:20.675Z,2868
2018-02-11T09:11:01.219Z,2820
2018-02-11T09:11:41.714Z,2852
2018-02-11T09:12:22.302Z,2936
2018-02-11T09:13:02.873Z,3020
2018-02-11T09:13:43.375Z,3076
2018-02-11T09:14:23.933Z,3160
2018-02-11T09:15:04.500Z,3288
2018-02-11T09:15:45.091Z,3452
2018-02-11T09:16:25.585Z,3640
2018-02-11T09:17:06.142Z,3796
2018-02-11T09:17:46.727Z,3908
2018-02-11T09:18:27.210Z,3976
2018-02-11T09:19:07.757Z,4016
2018-02-11T09:19:48.320Z,4024
2018-02-11T09:20:28.838Z,4012
2018-02-11T09:21:09.434Z,4012
2018-02-11T09:21:49.910Z,4036
2018-02-11T09:22:30.450Z,4012
2018-02-11T09:23:10.986Z,3888
2018-02-11T09:23:51.582Z,3752
2018-02-11T09:24:32.104Z,3608
2018-02-11T09:25:12.671Z,3536
2018-02-11T09:25:55.858Z,3480
2018-02-11T09:26:37.351Z,3396
2018-02-11T09:27:17.939Z,3416
2018-02-11T09:27:58.447Z,3440
2018-02-11T09:28:39.399Z,3452
2018-02-11T09:29:19.616Z,3452
2018-02-11T09:30:00.240Z,3396
2018-02-11T09:30:40.746Z,3348
2018-02-11T09:31:21.316Z,3408
2018-02-11T09:32:01.878Z,3376
2018-02-11T09:32:42.434Z,3340
2018-02-11T09:33:22.965Z,3320
2018-02-11T09:34:03.515Z,3320
2018-02-11T09:34:44.065Z,3288
2018-02-11T09:35:24.628Z,3224
2018-02-11T09:36:05.140Z,3172
2018-02-11T09:36:45.703Z,3132
2018-02-11T09:37:26.249Z,3076
2018-02-11T09:38:06.776Z,2968
2018-02-11T09:38:47.311Z,2836
2018-02-11T09:39:27.863Z,2748
2018-02-11T09:40:08.369Z,2688
2018-02-11T09:40:48.925Z,2640
2018-02-11T09:41:29.533Z,2560
2018-02-11T09:42:10.105Z,2456
2018-02-11T09:42:50.745Z,2300
2018-02-11T09:43:31.260Z,2148
2018-02-11T09:44:11.828Z,2072
2018-02-11T09:44:52.341Z,2152